createdAt,value
2023-02-21T00:00:05.241Z,98939.84
2023-02-21T00:03:22.991Z,98943.94
2023-02-21T00:06:14.180Z,98947.23
2023-02-21T00:09:05.000Z,98952.43
2023-02-21T00:11:59.491Z,98953.76
2023-02-21T00:14:50.420Z,98955.93
2023-02-21T00:17:41.680Z,98949.77
2023-02-21T00:20:32.521Z,98944.99
2023-02-21T00:23:24.001Z,98945.11
2023-02-21T00:26:14.857Z,98947.02
2023-02-21T00:29:06.472Z,98942.70
2023-02-21T00:31:59.014Z,98944.80
2023-02-21T00:34:50.566Z,98951.36
2023-02-21T00:37:42.246Z,98949.05
2023-02-21T00:40:35.267Z,98940.93
2023-02-21T00:43:27.198Z,98942.73
2023-02-21T00:46:18.692Z,98946.52
2023-02-21T00:49:09.570Z,98946.14
2023-02-21T00:52:00.098Z,98945.77
2023-02-21T00:54:51.113Z,98941.91
2023-02-21T00:57:42.713Z,98944.11
2023-02-21T01:00:38.966Z,98940.52
2023-02-21T01:03:31.114Z,98943.69
2023-02-21T01:06:27.523Z,98946.38
2023-02-21T01:09:18.576Z,98946.56
2023-02-21T01:12:10.762Z,98943.68
2023-02-21T01:15:02.642Z,98940.20
2023-02-21T01:17:54.084Z,98942.13
2023-02-21T01:20:45.673Z,98945.30
2023-02-21T01:23:39.529Z,98944.10
2023-02-21T01:26:31.352Z,98945.05
2023-02-21T01:29:23.939Z,98939.39
2023-02-21T01:32:17.627Z,98934.09
2023-02-21T01:35:12.770Z,98932.13
2023-02-21T01:38:03.673Z,98933.54
2023-02-21T01:40:58.785Z,98940.45
2023-02-21T01:43:50.003Z,98933.45
2023-02-21T01:46:42.149Z,98929.56
2023-02-21T01:49:37.609Z,98928.13
2023-02-21T01:52:28.854Z,98927.83
2023-02-21T01:55:19.968Z,98926.05
2023-02-21T01:58:13.617Z,98917.58
2023-02-21T02:01:06.594Z,98920.42
2023-02-21T02:03:59.346Z,98926.48
2023-02-21T02:06:51.021Z,98922.73
2023-02-21T02:09:42.799Z,98920.77
2023-02-21T02:12:38.524Z,98925.35
2023-02-21T02:15:26.550Z,98928.16
2023-02-21T02:18:27.856Z,98931.30
2023-02-21T02:21:35.478Z,98932.16
2023-02-21T02:24:42.066Z,98931.40
2023-02-21T02:27:54.384Z,98932.85
2023-02-21T02:30:59.045Z,98934.40
2023-02-21T02:34:07.246Z,98932.95
2023-02-21T02:36:44.643Z,98937.20
2023-02-21T02:39:26.019Z,98938.60
2023-02-21T02:42:11.971Z,98939.79
2023-02-21T02:44:52.330Z,98935.23
2023-02-21T02:47:31.243Z,98937.42
2023-02-21T02:50:08.097Z,98934.85
2023-02-21T02:52:51.130Z,98929.90
2023-02-21T02:55:38.678Z,98927.83
2023-02-21T02:58:13.533Z,98931.88
2023-02-21T03:00:54.222Z,98930.42
2023-02-21T03:03:53.576Z,98925.70
2023-02-21T03:06:35.815Z,98933.35
2023-02-21T03:09:16.092Z,98927.05
2023-02-21T03:12:00.188Z,98923.48
2023-02-21T03:14:40.482Z,98921.20
2023-02-21T03:17:19.151Z,98927.52
2023-02-21T03:19:57.997Z,98923.02
2023-02-21T03:22:32.915Z,98921.82
2023-02-21T03:25:08.620Z,98925.60
2023-02-21T03:27:44.614Z,98926.58
2023-02-21T03:30:30.017Z,98925.05
2023-02-21T03:33:04.409Z,98928.41
2023-02-21T03:35:38.385Z,98924.02
2023-02-21T03:38:13.676Z,98926.23
2023-02-21T03:40:47.621Z,98921.90
2023-02-21T03:43:21.385Z,98916.59
2023-02-21T03:45:58.340Z,98918.85
2023-02-21T03:48:34.623Z,98922.19
2023-02-21T03:51:15.206Z,98930.60
2023-02-21T03:53:49.802Z,98929.60
2023-02-21T03:56:33.320Z,98932.05
2023-02-21T03:59:24.807Z,98922.13
2023-02-21T04:01:59.369Z,98926.29
2023-02-21T04:04:35.962Z,98933.81
2023-02-21T04:07:20.364Z,98930.10
2023-02-21T04:10:12.495Z,98939.42
2023-02-21T04:12:50.903Z,98944.52
2023-02-21T04:15:25.014Z,98943.08
2023-02-21T04:17:58.614Z,98945.50
2023-02-21T04:20:32.872Z,98942.34
2023-02-21T04:23:25.429Z,98935.16
2023-02-21T04:25:59.916Z,98926.96
2023-02-21T04:28:41.522Z,98926.23
2023-02-21T04:31:16.165Z,98922.27
2023-02-21T04:33:56.937Z,98919.23
2023-02-21T04:36:37.708Z,98923.88
2023-02-21T04:39:12.056Z,98937.50
2023-02-21T04:42:03.131Z,98935.39
2023-02-21T04:44:37.810Z,98942.80
2023-02-21T04:47:11.370Z,98954.67
2023-02-21T04:49:45.163Z,98947.55
2023-02-21T04:52:20.573Z,98945.44
2023-02-21T04:54:54.409Z,98947.87
2023-02-21T04:57:31.321Z,98952.20
2023-02-21T05:00:08.766Z,98954.66
2023-02-21T05:02:46.527Z,98955.83
2023-02-21T05:05:20.647Z,98953.95
2023-02-21T05:07:54.448Z,98956.36
2023-02-21T05:10:43.562Z,98961.70
2023-02-21T05:13:19.129Z,98964.02
2023-02-21T05:15:52.955Z,98959.07
2023-02-21T05:18:34.997Z,98954.59
2023-02-21T05:21:09.427Z,98956.12
2023-02-21T05:23:56.390Z,98957.14
2023-02-21T05:26:35.604Z,98964.90
2023-02-21T05:29:09.036Z,98961.04
2023-02-21T05:31:42.651Z,98963.08
2023-02-21T05:34:17.847Z,98958.88
2023-02-21T05:36:51.284Z,98967.16
2023-02-21T05:39:24.952Z,98969.89
2023-02-21T05:41:58.809Z,98964.93
2023-02-21T05:44:32.947Z,98960.95
2023-02-21T05:47:07.537Z,98965.66
2023-02-21T05:49:41.503Z,98961.36
2023-02-21T05:52:17.182Z,98975.15
2023-02-21T05:54:51.222Z,98976.88
2023-02-21T05:57:25.148Z,98975.75
2023-02-21T05:59:58.629Z,98988.00
2023-02-21T06:02:32.526Z,98984.98
2023-02-21T06:05:07.412Z,98973.70
2023-02-21T06:07:40.980Z,98976.20
2023-02-21T06:10:14.787Z,98986.86
2023-02-21T06:12:49.205Z,98993.00
2023-02-21T06:15:22.841Z,98997.92
2023-02-21T06:17:57.086Z,98997.55
2023-02-21T06:20:31.201Z,98995.02
2023-02-21T06:23:07.610Z,98989.19
2023-02-21T06:25:41.290Z,98984.98
2023-02-21T06:28:16.274Z,98983.69
2023-02-21T06:30:50.418Z,98994.85
2023-02-21T06:33:24.416Z,99001.31
2023-02-21T06:35:58.376Z,99006.67
2023-02-21T06:38:32.198Z,99006.84
2023-02-21T06:41:13.152Z,99006.05
2023-02-21T06:43:47.148Z,99001.40
2023-02-21T06:46:21.894Z,99009.16
2023-02-21T06:48:56.065Z,99016.93
2023-02-21T06:51:30.974Z,99022.20
2023-02-21T06:54:06.030Z,99024.55
2023-02-21T06:56:39.860Z,99029.04
2023-02-21T06:59:13.557Z,99026.11
2023-02-21T07:01:47.228Z,99034.61
2023-02-21T07:04:21.454Z,99044.39
2023-02-21T07:06:55.967Z,99044.55
2023-02-21T07:09:30.495Z,99040.58
2023-02-21T07:12:05.028Z,99047.19
2023-02-21T07:14:38.749Z,99056.19
2023-02-21T07:17:12.271Z,99061.52
2023-02-21T07:19:45.782Z,99068.95
2023-02-21T07:22:26.445Z,99075.95
2023-02-21T07:25:00.690Z,99082.86
2023-02-21T07:27:34.490Z,99087.96
2023-02-21T07:30:09.975Z,99091.41
2023-02-21T07:32:43.798Z,99093.45
2023-02-21T07:35:17.680Z,99102.00
2023-02-21T07:37:51.696Z,99115.05
2023-02-21T07:40:25.462Z,99122.02
2023-02-21T07:42:59.804Z,99125.95
2023-02-21T07:45:33.715Z,99124.67
2023-02-21T07:48:07.681Z,99129.87
2023-02-21T07:50:41.198Z,99137.02
2023-02-21T07:53:16.437Z,99141.04
2023-02-21T07:55:50.711Z,99148.30
2023-02-21T07:58:24.067Z,99154.37
2023-02-21T08:00:57.632Z,99153.44
2023-02-21T08:03:31.485Z,99153.28
2023-02-21T08:06:05.627Z,99152.61
2023-02-21T08:08:39.414Z,99156.92
2023-02-21T08:11:13.063Z,99160.02
2023-02-21T08:13:46.983Z,99166.66
2023-02-21T08:16:21.058Z,99169.80
2023-02-21T08:18:55.095Z,99171.36
2023-02-21T08:21:28.847Z,99173.84
2023-02-21T08:24:02.757Z,99179.79
2023-02-21T08:26:36.762Z,99182.60
2023-02-21T08:29:10.350Z,99185.95
2023-02-21T08:31:45.099Z,99193.05
2023-02-21T08:34:18.910Z,99195.90
2023-02-21T08:36:52.780Z,99192.72
2023-02-21T08:39:30.814Z,99194.66
2023-02-21T08:42:04.609Z,99196.38
2023-02-21T08:44:38.198Z,99207.18
2023-02-21T08:47:12.221Z,99211.49
2023-02-21T08:49:47.890Z,99219.36
2023-02-21T08:52:22.895Z,99219.03
2023-02-21T08:54:56.598Z,99221.61
2023-02-21T08:57:30.152Z,99228.33
2023-02-21T09:00:04.851Z,99235.15
2023-02-21T09:02:40.545Z,99234.54
2023-02-21T09:05:16.361Z,99243.24
2023-02-21T09:07:51.679Z,99250.95
2023-02-21T09:10:25.531Z,99251.23
2023-02-21T09:12:59.221Z,99255.42
2023-02-21T09:15:33.358Z,99262.11
2023-02-21T09:18:07.550Z,99266.29
2023-02-21T09:20:42.749Z,99269.52
2023-02-21T09:23:18.542Z,99269.31
2023-02-21T09:25:53.199Z,99269.26
2023-02-21T09:28:27.072Z,99269.59
2023-02-21T09:31:00.848Z,99276.33
2023-02-21T09:33:34.605Z,99275.88
2023-02-21T09:36:09.326Z,99281.83
2023-02-21T09:38:43.644Z,99284.71
2023-02-21T09:41:18.354Z,99291.25
2023-02-21T09:43:55.268Z,99294.95
2023-02-21T09:46:37.386Z,99298.10
2023-02-21T09:49:19.479Z,99303.83
2023-02-21T09:51:56.550Z,99306.77
2023-02-21T09:54:35.550Z,99311.20
2023-02-21T09:57:15.964Z,99316.80
2023-02-21T09:59:49.627Z,99321.52
2023-02-21T10:02:40.588Z,99322.59
2023-02-21T10:05:24.473Z,99327.50
2023-02-21T10:08:07.225Z,99326.45
2023-02-21T10:10:46.501Z,99335.14
2023-02-21T10:13:37.337Z,99338.40
2023-02-21T10:16:17.945Z,99342.13
2023-02-21T10:19:03.227Z,99340.93
2023-02-21T10:21:42.419Z,99348.68
2023-02-21T10:24:18.499Z,99349.77
2023-02-21T10:27:00.110Z,99353.31
2023-02-21T10:29:45.839Z,99355.08
2023-02-21T10:32:20.022Z,99356.73
2023-02-21T10:34:55.094Z,99355.08
2023-02-21T10:37:39.553Z,99353.39
2023-02-21T10:40:26.552Z,99352.09
2023-02-21T10:43:07.866Z,99357.06
2023-02-21T10:45:47.242Z,99354.10
2023-02-21T10:48:26.955Z,99356.56
2023-02-21T10:51:12.453Z,99356.84
2023-02-21T10:53:47.591Z,99360.48
2023-02-21T10:56:31.311Z,99360.27
2023-02-21T10:59:08.372Z,99357.21
2023-02-21T11:01:46.753Z,99362.84
2023-02-21T11:04:36.004Z,99366.58
2023-02-21T11:07:12.617Z,99375.04
2023-02-21T11:09:47.649Z,99375.07
2023-02-21T11:12:26.570Z,99378.49
2023-02-21T11:15:19.920Z,99379.73
2023-02-21T11:18:07.131Z,99386.33
2023-02-21T11:20:40.790Z,99392.05
2023-02-21T11:23:27.330Z,99391.17
2023-02-21T11:26:11.910Z,99392.72
2023-02-21T11:28:46.936Z,99393.56
2023-02-21T11:31:29.375Z,99396.90
2023-02-21T11:34:07.530Z,99398.58
2023-02-21T11:36:43.576Z,99401.37
2023-02-21T11:39:21.944Z,99404.38
2023-02-21T11:41:57.699Z,99405.46
2023-02-21T11:44:35.587Z,99400.08
2023-02-21T11:47:18.941Z,99399.26
2023-02-21T11:50:10.003Z,99398.98
2023-02-21T11:52:48.703Z,99400.50
2023-02-21T11:55:26.337Z,99400.83
2023-02-21T11:58:20.013Z,99404.73
2023-02-21T12:01:03.926Z,99411.08
2023-02-21T12:04:04.692Z,99408.56
2023-02-21T12:06:44.769Z,99407.34
2023-02-21T12:09:23.649Z,99412.91
2023-02-21T12:12:15.380Z,99414.98
2023-02-21T12:15:03.055Z,99418.61
2023-02-21T12:17:54.267Z,99422.59
2023-02-21T12:20:43.596Z,99425.14
2023-02-21T12:23:26.653Z,99423.00
2023-02-21T12:26:21.377Z,99424.63
2023-02-21T12:29:11.260Z,99419.53
2023-02-21T12:32:06.069Z,99419.48
2023-02-21T12:34:56.509Z,99419.54
2023-02-21T12:37:39.820Z,99420.59
2023-02-21T12:40:25.422Z,99420.84
2023-02-21T12:43:13.436Z,99433.36
2023-02-21T12:45:58.728Z,99440.58
2023-02-21T12:48:37.430Z,99444.23
2023-02-21T12:51:16.475Z,99447.65
2023-02-21T12:53:57.109Z,99449.30
2023-02-21T12:56:34.191Z,99449.39
2023-02-21T12:59:16.413Z,99450.67
2023-02-21T13:01:54.371Z,99447.70
2023-02-21T13:04:50.030Z,99450.95
2023-02-21T13:07:29.008Z,99463.64
2023-02-21T13:10:08.400Z,99463.60
2023-02-21T13:12:46.907Z,99464.77
2023-02-21T13:15:24.360Z,99475.13
2023-02-21T13:18:10.562Z,99477.15
2023-02-21T13:20:48.273Z,99475.82
2023-02-21T13:23:58.759Z,99483.48
2023-02-21T13:26:59.666Z,99494.92
2023-02-21T13:29:37.437Z,99499.07
2023-02-21T13:32:17.476Z,99505.38
2023-02-21T13:34:51.046Z,99504.27
2023-02-21T13:37:27.949Z,99503.09
2023-02-21T13:40:08.184Z,99506.84
2023-02-21T13:42:42.396Z,99511.91
2023-02-21T13:45:24.586Z,99513.73
2023-02-21T13:48:33.155Z,99519.63
2023-02-21T13:51:07.297Z,99514.95
2023-02-21T13:54:11.486Z,99515.05
2023-02-21T13:56:49.704Z,99516.89
2023-02-21T13:59:37.699Z,99515.98
2023-02-21T14:02:33.093Z,99515.26
2023-02-21T14:05:09.202Z,99515.40
2023-02-21T14:07:58.557Z,99522.13
2023-02-21T14:10:43.334Z,99522.58
2023-02-21T14:13:32.962Z,99522.35
2023-02-21T14:16:23.240Z,99522.50
2023-02-21T14:19:00.842Z,99527.20
2023-02-21T14:21:42.577Z,99530.38
2023-02-21T14:24:18.994Z,99537.52
2023-02-21T14:26:58.409Z,99542.89
2023-02-21T14:29:38.389Z,99543.47
2023-02-21T14:32:30.204Z,99549.52
2023-02-21T14:35:15.102Z,99552.80
2023-02-21T14:37:58.863Z,99551.25
2023-02-21T14:40:42.952Z,99558.05
2023-02-21T14:43:33.626Z,99559.75
2023-02-21T14:46:29.028Z,99563.37
2023-02-21T14:49:26.255Z,99567.34
2023-02-21T14:52:27.008Z,99566.17
2023-02-21T14:55:36.184Z,99569.78
2023-02-21T14:58:37.962Z,99569.59
2023-02-21T15:01:28.542Z,99570.68
2023-02-21T15:04:11.100Z,99576.48
2023-02-21T15:06:55.443Z,99579.30
2023-02-21T15:09:29.145Z,99579.11
2023-02-21T15:12:03.960Z,99582.25
2023-02-21T15:14:42.108Z,99584.01
2023-02-21T15:17:19.656Z,99587.46
2023-02-21T15:20:07.387Z,99592.24
2023-02-21T15:22:41.489Z,99598.23
2023-02-21T15:25:23.646Z,99603.75
2023-02-21T15:28:03.654Z,99604.54
2023-02-21T15:30:43.289Z,99605.47
2023-02-21T15:33:21.078Z,99607.23
2023-02-21T15:36:01.256Z,99611.98
2023-02-21T15:38:41.232Z,99615.12
2023-02-21T15:41:22.268Z,99615.60
2023-02-21T15:44:02.093Z,99617.53
2023-02-21T15:46:42.755Z,99623.95
2023-02-21T15:49:21.397Z,99625.72
2023-02-21T15:51:55.705Z,99625.88
2023-02-21T15:54:34.935Z,99630.68
2023-02-21T15:57:25.354Z,99630.77
2023-02-21T16:00:21.708Z,99630.45
2023-02-21T16:03:15.860Z,99633.05
2023-02-21T16:05:50.426Z,99641.77
2023-02-21T16:08:25.049Z,99643.79
2023-02-21T16:11:06.083Z,99645.31
2023-02-21T16:13:43.044Z,99652.12
2023-02-21T16:16:18.869Z,99657.44
2023-02-21T16:19:00.616Z,99661.29
2023-02-21T16:21:35.891Z,99664.37
2023-02-21T16:24:32.638Z,99675.39
2023-02-21T16:27:14.445Z,99675.60
2023-02-21T16:29:52.156Z,99678.40
2023-02-21T16:32:25.885Z,99678.02
2023-02-21T16:35:00.160Z,99680.41
2023-02-21T16:37:34.725Z,99685.88
2023-02-21T16:40:16.661Z,99689.51
2023-02-21T16:42:53.157Z,99695.52
2023-02-21T16:45:28.846Z,99697.30
2023-02-21T16:48:09.624Z,99698.73
2023-02-21T16:50:47.196Z,99699.59
2023-02-21T16:53:24.285Z,99702.12
2023-02-21T16:55:58.891Z,99703.23
2023-02-21T16:58:53.400Z,99707.74
2023-02-21T17:01:30.987Z,99708.32
2023-02-21T17:04:07.729Z,99715.08
2023-02-21T17:06:41.970Z,99714.14
2023-02-21T17:09:22.623Z,99717.25
2023-02-21T17:11:56.828Z,99722.66
2023-02-21T17:14:31.640Z,99725.61
2023-02-21T17:17:08.032Z,99725.95
2023-02-21T17:19:42.423Z,99729.67
2023-02-21T17:22:18.811Z,99732.67
2023-02-21T17:24:56.945Z,99733.75
2023-02-21T17:27:35.658Z,99742.48
2023-02-21T17:30:14.332Z,99745.14
2023-02-21T17:32:50.920Z,99745.98
2023-02-21T17:35:29.309Z,99749.55
2023-02-21T17:38:04.844Z,99753.88
2023-02-21T17:40:41.813Z,99754.14
2023-02-21T17:43:19.363Z,99757.96
2023-02-21T17:45:57.501Z,99758.58
2023-02-21T17:48:35.434Z,99758.67
2023-02-21T17:51:11.235Z,99761.79
2023-02-21T17:53:47.256Z,99767.94
2023-02-21T17:56:27.858Z,99768.18
2023-02-21T17:59:05.499Z,99771.46
2023-02-21T18:01:47.399Z,99772.98
2023-02-21T18:04:27.996Z,99776.48
2023-02-21T18:07:06.310Z,99783.39
2023-02-21T18:09:42.310Z,99783.00
2023-02-21T18:12:20.865Z,99788.67
2023-02-21T18:14:57.439Z,99784.83
2023-02-21T18:17:34.794Z,99779.40
2023-02-21T18:20:13.069Z,99781.31
2023-02-21T18:22:49.974Z,99783.07
2023-02-21T18:25:27.833Z,99787.86
2023-02-21T18:28:03.731Z,99789.80
2023-02-21T18:30:40.050Z,99788.64
2023-02-21T18:33:18.552Z,99789.02
2023-02-21T18:35:56.265Z,99793.11
2023-02-21T18:38:31.385Z,99795.98
2023-02-21T18:41:11.942Z,99798.33
2023-02-21T18:43:49.774Z,99800.41
2023-02-21T18:46:30.193Z,99800.34
2023-02-21T18:49:09.223Z,99806.07
2023-02-21T18:51:47.281Z,99812.70
2023-02-21T18:54:24.800Z,99808.84
2023-02-21T18:57:04.045Z,99810.00
2023-02-21T18:59:43.983Z,99811.51
2023-02-21T19:02:22.365Z,99815.23
2023-02-21T19:04:58.884Z,99813.73
2023-02-21T19:07:37.411Z,99814.17
2023-02-21T19:10:17.924Z,99826.27
2023-02-21T19:12:54.205Z,99836.84
2023-02-21T19:15:31.094Z,99841.52
2023-02-21T19:18:10.018Z,99842.81
2023-02-21T19:20:45.635Z,99846.09
2023-02-21T19:23:22.800Z,99850.17
2023-02-21T19:25:59.733Z,99853.66
2023-02-21T19:28:38.449Z,99855.55
2023-02-21T19:31:28.719Z,99857.98
2023-02-21T19:34:07.759Z,99859.88
2023-02-21T19:36:44.626Z,99864.45
2023-02-21T19:39:21.996Z,99864.92
2023-02-21T19:42:00.773Z,99868.86
2023-02-21T19:44:43.353Z,99867.09
2023-02-21T19:47:24.836Z,99871.27
2023-02-21T19:50:04.306Z,99872.49
2023-02-21T19:52:44.435Z,99875.89
2023-02-21T19:55:23.826Z,99882.27
2023-02-21T19:58:01.514Z,99889.88
2023-02-21T20:00:39.656Z,99895.10
2023-02-21T20:03:15.243Z,99895.69
2023-02-21T20:06:00.189Z,99898.48
2023-02-21T20:08:39.711Z,99906.56
2023-02-21T20:11:25.669Z,99906.70
2023-02-21T20:14:04.931Z,99909.43
2023-02-21T20:16:48.492Z,99910.05
2023-02-21T20:19:48.690Z,99911.73
2023-02-21T20:22:32.467Z,99910.40
2023-02-21T20:25:11.592Z,99917.21
2023-02-21T20:27:55.308Z,99917.64
2023-02-21T20:30:38.163Z,99915.64
2023-02-21T20:33:16.711Z,99919.11
2023-02-21T20:35:56.038Z,99920.66
2023-02-21T20:38:34.144Z,99920.30
2023-02-21T20:41:15.008Z,99922.44
2023-02-21T20:43:52.714Z,99924.25
2023-02-21T20:46:39.378Z,99927.85
2023-02-21T20:49:23.592Z,99931.38
2023-02-21T20:52:01.760Z,99934.23
2023-02-21T20:54:39.370Z,99937.81
2023-02-21T20:57:16.256Z,99945.24
2023-02-21T20:59:52.569Z,99946.33
2023-02-21T21:02:37.387Z,99948.73
2023-02-21T21:05:19.671Z,99949.77
2023-02-21T21:07:57.267Z,99958.02
2023-02-21T21:10:33.985Z,99959.09
2023-02-21T21:13:11.267Z,99958.34
2023-02-21T21:15:49.123Z,99964.92
2023-02-21T21:18:25.297Z,99964.65
2023-02-21T21:21:05.904Z,99972.00
2023-02-21T21:23:41.637Z,99977.52
2023-02-21T21:26:21.821Z,99983.23
2023-02-21T21:29:04.393Z,99991.13
2023-02-21T21:31:41.040Z,99998.88
2023-02-21T21:34:21.435Z,100004.91
2023-02-21T21:36:59.514Z,100007.00
2023-02-21T21:39:36.392Z,100011.15
2023-02-21T21:42:18.241Z,100015.81
2023-02-21T21:44:55.996Z,100017.83
2023-02-21T21:47:38.905Z,100020.86
2023-02-21T21:50:18.040Z,100015.58
2023-02-21T21:52:58.906Z,100018.83
2023-02-21T21:55:35.822Z,100024.66
2023-02-21T21:58:15.429Z,100030.77
2023-02-21T22:00:49.612Z,100034.21
2023-02-21T22:03:24.423Z,100033.74
2023-02-21T22:06:01.005Z,100032.44
2023-02-21T22:08:34.933Z,100034.30
2023-02-21T22:11:10.168Z,100032.23
2023-02-21T22:13:43.814Z,100032.90
2023-02-21T22:16:18.452Z,100030.33
2023-02-21T22:18:52.915Z,100032.89
2023-02-21T22:21:26.673Z,100039.53
2023-02-21T22:24:00.327Z,100043.92
2023-02-21T22:26:34.806Z,100050.77
2023-02-21T22:29:08.317Z,100053.65
2023-02-21T22:31:42.240Z,100056.73
2023-02-21T22:34:23.532Z,100059.05
2023-02-21T22:36:59.206Z,100061.44
2023-02-21T22:39:33.538Z,100062.09
2023-02-21T22:42:09.144Z,100065.60
2023-02-21T22:44:43.679Z,100065.92
2023-02-21T22:47:17.435Z,100067.36
2023-02-21T22:49:51.123Z,100068.90
2023-02-21T22:52:24.881Z,100070.30
2023-02-21T22:54:59.038Z,100075.23
2023-02-21T22:57:33.032Z,100074.80
2023-02-21T23:00:19.373Z,100076.67
2023-02-21T23:02:53.777Z,100080.77
2023-02-21T23:05:27.751Z,100082.08
2023-02-21T23:08:01.509Z,100085.27
2023-02-21T23:10:40.787Z,100088.06
2023-02-21T23:13:18.785Z,100092.05
2023-02-21T23:15:55.616Z,100094.54
2023-02-21T23:18:31.860Z,100097.45
2023-02-21T23:21:10.118Z,100101.95
2023-02-21T23:23:42.893Z,100102.15
2023-02-21T23:26:20.070Z,100107.55
2023-02-21T23:28:54.077Z,100108.15
2023-02-21T23:31:28.073Z,100118.75
2023-02-21T23:34:01.936Z,100124.55
2023-02-21T23:36:35.754Z,100128.46
2023-02-21T23:39:10.183Z,100135.00
2023-02-21T23:41:49.378Z,100141.67
2023-02-21T23:44:23.373Z,100144.22
2023-02-21T23:46:57.200Z,100145.10
2023-02-21T23:49:31.137Z,100147.23
2023-02-21T23:52:04.799Z,100149.59
2023-02-21T23:54:38.979Z,100151.28
2023-02-21T23:57:12.319Z,100153.55
2023-02-21T23:59:46.019Z,100154.21
